CheckWX is a tool to help pilots better visualize weather data.  It is not intended as a substitute for an official pre-flight weather briefing.

16:57:16 UTC

LFBU TAF
Angoulême-Brie-Champniers Airport
Angoulême/Brie/Champniers, France
TAF LFBU 181100Z 1812/1912 12010KT CAVOK BECMG 1820/1822 32010KT TEMPO 1822/1903 -SHRA BKN070TCU PROB30 TEMPO 1822/1901 VRB15G30KT 4000 TSRAGR SCT015 BKN050CB BECMG 1906/1908 27010KT

Jun-18@
12:00 UTC

Jun-18 @ 12:00 UTC

Jun-18@
20:00 UTC

Jun-18 @ 20:00 UTC

TAF LFBU 181100Z 1812/1912 12010KT CAVOK
Wind
  • 120° at 10 KTS
Conditions
No significant weather
Cloud Levels
  • No significant clouds

Jun-18@
20:00 UTC

Jun-18 @ 20:00 UTC

Jun-19@
06:00 UTC

Jun-19 @ 06:00 UTC

BECMG 1820/1822 32010KT

Becoming

Becoming Conditions expected by Tue, Jun 18, 2019 @ 22:00 UTC

Wind
  • 320° at 10 KTS
Conditions
No significant weather
Cloud Levels
  • No significant clouds

Jun-18@
22:00 UTC

Jun-18 @ 22:00 UTC

Jun-19@
01:00 UTC

Jun-19 @ 01:00 UTC

PROB30 TEMPO 1822/1901 VRB15G30KT 4000 TSRAGR SCT015 BKN050CB

Temporary - 30% Likelihood

Temporary - 30% Likelihood during this time.

Wind
  • Variable at 15 KTS
  • {Gusting to 30 KTS
Conditions
Thunderstorm, Rain, Thunderstorm, Hail
Cloud Levels
  • Scattered at 1,500' AGL
  • Broken at 5,000' AGL

Jun-18@
22:00 UTC

Jun-18 @ 22:00 UTC

Jun-19@
03:00 UTC

Jun-19 @ 03:00 UTC

TEMPO 1822/1903 -SHRA BKN070TCU

Temporary

Temporary Changes expected for less than half the time period

Conditions
Light Rain
Cloud Levels
  • Broken at 7,000' AGL

Jun-19@
06:00 UTC

Jun-19 @ 06:00 UTC

Jun-19@
12:00 UTC

Jun-19 @ 12:00 UTC

BECMG 1906/1908 27010KT

Becoming

Becoming Conditions expected by Wed, Jun 19, 2019 @ 08:00 UTC

Wind
  • 270° at 10 KTS
Conditions
No significant weather
Cloud Levels
  • No significant clouds